sensor_id;sensor_type;location;lat;lon;timestamp;pressure;altitude;pressure_sealevel;temperature;humidity
19672;BME280;9983;51.114;13.788;2023-05-24T00:04:09;99622.97;;;12.76;100.00
19672;BME280;9983;51.114;13.788;2023-05-24T00:09:11;99625.75;;;13.12;100.00
19672;BME280;9983;51.114;13.788;2023-05-24T00:14:11;99628.97;;;13.07;100.00
19672;BME280;9983;51.114;13.788;2023-05-24T00:19:12;99628.81;;;13.23;100.00
19672;BME280;9983;51.114;13.788;2023-05-24T00:24:17;99626.72;;;13.40;100.00
19672;BME280;9983;51.114;13.788;2023-05-24T00:29:17;99623.44;;;12.79;100.00
19672;BME280;9983;51.114;13.788;2023-05-24T00:34:18;99630.19;;;12.75;100.00
19672;BME280;9983;51.114;13.788;2023-05-24T00:39:18;99631.47;;;12.50;100.00
19672;BME280;9983;51.114;13.788;2023-05-24T00:44:18;99640.78;;;12.62;100.00
19672;BME280;9983;51.114;13.788;2023-05-24T00:49:18;99645.94;;;12.49;100.00
19672;BME280;9983;51.114;13.788;2023-05-24T00:54:19;99647.84;;;12.63;100.00
19672;BME280;9983;51.114;13.788;2023-05-24T00:59:20;99646.16;;;12.62;100.00
19672;BME280;9983;51.114;13.788;2023-05-24T01:04:20;99646.00;;;12.78;100.00
19672;BME280;9983;51.114;13.788;2023-05-24T01:09:29;99661.13;;;12.42;100.00
19672;BME280;9983;51.114;13.788;2023-05-24T01:14:49;99658.59;;;12.63;100.00
19672;BME280;9983;51.114;13.788;2023-05-24T01:20:03;99660.03;;;12.51;100.00
19672;BME280;9983;51.114;13.788;2023-05-24T01:25:11;99657.00;;;12.69;100.00
19672;BME280;9983;51.114;13.788;2023-05-24T01:30:13;99684.28;;;12.80;100.00
19672;BME280;9983;51.114;13.788;2023-05-24T01:35:14;99660.06;;;12.80;100.00
19672;BME280;9983;51.114;13.788;2023-05-24T01:40:14;99673.75;;;12.41;100.00
19672;BME280;9983;51.114;13.788;2023-05-24T01:45:21;99664.84;;;12.41;100.00
19672;BME280;9983;51.114;13.788;2023-05-24T01:50:31;99671.69;;;11.83;100.00
19672;BME280;9983;51.114;13.788;2023-05-24T01:55:33;99674.84;;;12.09;100.00
19672;BME280;9983;51.114;13.788;2023-05-24T02:00:37;99686.63;;;12.08;100.00
19672;BME280;9983;51.114;13.788;2023-05-24T02:05:38;99680.06;;;11.88;100.00
19672;BME280;9983;51.114;13.788;2023-05-24T02:10:39;99683.38;;;11.90;100.00
19672;BME280;9983;51.114;13.788;2023-05-24T02:15:39;99679.31;;;12.17;100.00
19672;BME280;9983;51.114;13.788;2023-05-24T02:20:40;99680.06;;;11.88;100.00
19672;BME280;9983;51.114;13.788;2023-05-24T02:25:41;99675.50;;;11.89;100.00
19672;BME280;9983;51.114;13.788;2023-05-24T02:30:41;99678.72;;;11.84;100.00
19672;BME280;9983;51.114;13.788;2023-05-24T02:35:43;99673.34;;;12.07;100.00
19672;BME280;9983;51.114;13.788;2023-05-24T02:40:43;99675.97;;;11.92;100.00
19672;BME280;9983;51.114;13.788;2023-05-24T02:45:44;99664.75;;;12.11;100.00
19672;BME280;9983;51.114;13.788;2023-05-24T02:50:44;99661.34;;;11.64;100.00
19672;BME280;9983;51.114;13.788;2023-05-24T02:55:44;99651.91;;;11.45;100.00
19672;BME280;9983;51.114;13.788;2023-05-24T03:00:45;99657.00;;;11.63;100.00
19672;BME280;9983;51.114;13.788;2023-05-24T03:05:46;99659.25;;;11.82;100.00
19672;BME280;9983;51.114;13.788;2023-05-24T03:10:46;99661.88;;;11.90;100.00
19672;BME280;9983;51.114;13.788;2023-05-24T03:15:46;99654.06;;;11.50;100.00
19672;BME280;9983;51.114;13.788;2023-05-24T03:20:46;99669.00;;;11.83;100.00
19672;BME280;9983;51.114;13.788;2023-05-24T03:25:47;99673.00;;;11.87;100.00
19672;BME280;9983;51.114;13.788;2023-05-24T03:30:47;99670.44;;;11.63;100.00
19672;BME280;9983;51.114;13.788;2023-05-24T03:35:48;99674.31;;;11.29;100.00
19672;BME280;9983;51.114;13.788;2023-05-24T03:40:48;99678.34;;;11.25;100.00
19672;BME280;9983;51.114;13.788;2023-05-24T03:45:48;99679.13;;;11.65;100.00
19672;BME280;9983;51.114;13.788;2023-05-24T03:50:49;99686.19;;;11.66;100.00
19672;BME280;9983;51.114;13.788;2023-05-24T03:55:49;99689.97;;;11.49;100.00
19672;BME280;9983;51.114;13.788;2023-05-24T04:00:50;99688.88;;;11.66;100.00
19672;BME280;9983;51.114;13.788;2023-05-24T04:05:50;99687.63;;;11.54;100.00
19672;BME280;9983;51.114;13.788;2023-05-24T04:10:51;99701.72;;;11.00;100.00
19672;BME280;9983;51.114;13.788;2023-05-24T04:15:51;99708.13;;;11.38;100.00
19672;BME280;9983;51.114;13.788;2023-05-24T04:20:51;99707.69;;;11.27;100.00
19672;BME280;9983;51.114;13.788;2023-05-24T04:25:52;99714.66;;;11.44;100.00
19672;BME280;9983;51.114;13.788;2023-05-24T04:30:52;99718.50;;;11.50;100.00
19672;BME280;9983;51.114;13.788;2023-05-24T04:35:53;99717.41;;;11.98;100.00
19672;BME280;9983;51.114;13.788;2023-05-24T04:40:54;99723.78;;;11.27;100.00
19672;BME280;9983;51.114;13.788;2023-05-24T04:45:58;99717.13;;;11.07;100.00
19672;BME280;9983;51.114;13.788;2023-05-24T04:50:58;99723.78;;;11.66;100.00
19672;BME280;9983;51.114;13.788;2023-05-24T04:55:59;99740.03;;;11.33;100.00
19672;BME280;9983;51.114;13.788;2023-05-24T05:01:00;99746.59;;;11.70;100.00
19672;BME280;9983;51.114;13.788;2023-05-24T05:06:01;99747.72;;;11.45;100.00
19672;BME280;9983;51.114;13.788;2023-05-24T05:11:01;99757.22;;;11.08;100.00
19672;BME280;9983;51.114;13.788;2023-05-24T05:16:02;99762.72;;;11.78;100.00
19672;BME280;9983;51.114;13.788;2023-05-24T05:21:02;99763.97;;;11.90;100.00
19672;BME280;9983;51.114;13.788;2023-05-24T05:26:02;99761.34;;;11.82;100.00
19672;BME280;9983;51.114;13.788;2023-05-24T05:31:03;99764.69;;;11.84;100.00
19672;BME280;9983;51.114;13.788;2023-05-24T05:36:03;99767.66;;;10.95;100.00
19672;BME280;9983;51.114;13.788;2023-05-24T05:41:03;99767.78;;;11.57;100.00
19672;BME280;9983;51.114;13.788;2023-05-24T05:46:04;99770.19;;;11.52;100.00
19672;BME280;9983;51.114;13.788;2023-05-24T05:51:04;99775.66;;;11.19;100.00
19672;BME280;9983;51.114;13.788;2023-05-24T05:56:04;99768.09;;;11.78;100.00
19672;BME280;9983;51.114;13.788;2023-05-24T06:01:05;99779.84;;;11.69;100.00
19672;BME280;9983;51.114;13.788;2023-05-24T06:06:05;99773.53;;;11.93;100.00
19672;BME280;9983;51.114;13.788;2023-05-24T06:11:05;99773.53;;;11.54;100.00
19672;BME280;9983;51.114;13.788;2023-05-24T06:16:06;99780.22;;;11.97;100.00
19672;BME280;9983;51.114;13.788;2023-05-24T06:21:07;99782.75;;;11.98;100.00
19672;BME280;9983;51.114;13.788;2023-05-24T06:26:09;99785.84;;;11.87;100.00
19672;BME280;9983;51.114;13.788;2023-05-24T06:31:09;99805.63;;;11.31;100.00
19672;BME280;9983;51.114;13.788;2023-05-24T06:36:10;99789.41;;;11.63;100.00
19672;BME280;9983;51.114;13.788;2023-05-24T06:41:10;99796.97;;;11.76;100.00
19672;BME280;9983;51.114;13.788;2023-05-24T06:46:10;99794.53;;;11.89;100.00
19672;BME280;9983;51.114;13.788;2023-05-24T06:51:10;99804.94;;;11.92;100.00
19672;BME280;9983;51.114;13.788;2023-05-24T06:56:11;99809.69;;;11.82;100.00
19672;BME280;9983;51.114;13.788;2023-05-24T07:01:11;99798.56;;;12.47;100.00
19672;BME280;9983;51.114;13.788;2023-05-24T07:06:11;99801.59;;;11.90;100.00
19672;BME280;9983;51.114;13.788;2023-05-24T07:11:13;99803.19;;;12.30;100.00
19672;BME280;9983;51.114;13.788;2023-05-24T07:16:14;99811.91;;;12.63;100.00
19672;BME280;9983;51.114;13.788;2023-05-24T07:21:14;99815.16;;;12.73;100.00
19672;BME280;9983;51.114;13.788;2023-05-24T07:26:15;99823.06;;;12.52;100.00
19672;BME280;9983;51.114;13.788;2023-05-24T07:31:16;99817.41;;;12.70;98.24
19672;BME280;9983;51.114;13.788;2023-05-24T07:36:16;99822.59;;;12.71;94.80
19672;BME280;9983;51.114;13.788;2023-05-24T07:41:16;99826.25;;;12.78;94.38
19672;BME280;9983;51.114;13.788;2023-05-24T07:46:17;99830.34;;;12.66;95.31
19672;BME280;9983;51.114;13.788;2023-05-24T07:51:17;99830.91;;;12.62;94.43
19672;BME280;9983;51.114;13.788;2023-05-24T07:56:17;99829.13;;;12.23;95.94
19672;BME280;9983;51.114;13.788;2023-05-24T08:01:18;99841.94;;;12.44;93.64
19672;BME280;9983;51.114;13.788;2023-05-24T08:06:18;99842.44;;;12.70;91.71
19672;BME280;9983;51.114;13.788;2023-05-24T08:11:19;99844.94;;;12.95;91.52
19672;BME280;9983;51.114;13.788;2023-05-24T08:16:19;99846.25;;;12.53;91.20
19672;BME280;9983;51.114;13.788;2023-05-24T08:21:19;99857.00;;;12.99;90.73
19672;BME280;9983;51.114;13.788;2023-05-24T08:26:20;99849.25;;;12.58;89.45
19672;BME280;9983;51.114;13.788;2023-05-24T08:31:21;99852.44;;;12.31;90.79
19672;BME280;9983;51.114;13.788;2023-05-24T08:36:21;99849.13;;;12.51;89.55
19672;BME280;9983;51.114;13.788;2023-05-24T08:41:22;99866.22;;;12.81;87.62
19672;BME280;9983;51.114;13.788;2023-05-24T08:46:23;99854.38;;;12.45;89.80
19672;BME280;9983;51.114;13.788;2023-05-24T08:51:24;99860.13;;;12.87;87.42
19672;BME280;9983;51.114;13.788;2023-05-24T08:56:26;99866.97;;;13.21;91.22
19672;BME280;9983;51.114;13.788;2023-05-24T09:01:29;99861.06;;;13.70;84.89
19672;BME280;9983;51.114;13.788;2023-05-24T09:06:30;99860.50;;;13.59;83.59
19672;BME280;9983;51.114;13.788;2023-05-24T09:11:32;99867.56;;;13.90;80.82
19672;BME280;9983;51.114;13.788;2023-05-24T09:16:33;99853.16;;;14.12;81.01
19672;BME280;9983;51.114;13.788;2023-05-24T09:21:33;99856.91;;;14.32;78.64
19672;BME280;9983;51.114;13.788;2023-05-24T09:26:35;99863.28;;;14.82;66.01
19672;BME280;9983;51.114;13.788;2023-05-24T09:31:37;99857.03;;;14.10;67.15
19672;BME280;9983;51.114;13.788;2023-05-24T09:36:40;99859.03;;;14.37;65.25
19672;BME280;9983;51.114;13.788;2023-05-24T09:41:42;99860.72;;;14.38;61.54
19672;BME280;9983;51.114;13.788;2023-05-24T09:46:42;99863.44;;;13.35;66.76
19672;BME280;9983;51.114;13.788;2023-05-24T09:51:42;99862.34;;;13.44;68.08
19672;BME280;9983;51.114;13.788;2023-05-24T09:56:45;99864.03;;;13.89;65.11
19672;BME280;9983;51.114;13.788;2023-05-24T10:01:45;99863.16;;;14.48;63.89
19672;BME280;9983;51.114;13.788;2023-05-24T10:06:46;99868.47;;;14.26;65.16
19672;BME280;9983;51.114;13.788;2023-05-24T10:11:47;99877.16;;;13.78;63.26
19672;BME280;9983;51.114;13.788;2023-05-24T10:16:47;99883.31;;;13.11;67.50
19672;BME280;9983;51.114;13.788;2023-05-24T10:21:48;99871.09;;;13.46;65.77
19672;BME280;9983;51.114;13.788;2023-05-24T10:26:48;99871.88;;;14.50;62.18
19672;BME280;9983;51.114;13.788;2023-05-24T10:31:50;99883.88;;;15.04;60.72
19672;BME280;9983;51.114;13.788;2023-05-24T10:36:51;99868.69;;;14.82;58.93
19672;BME280;9983;51.114;13.788;2023-05-24T10:41:54;99863.50;;;15.85;60.45
19672;BME280;9983;51.114;13.788;2023-05-24T10:47:11;99867.22;;;16.19;57.26
19672;BME280;9983;51.114;13.788;2023-05-24T10:52:12;99887.06;;;14.93;55.71
19672;BME280;9983;51.114;13.788;2023-05-24T10:57:12;99890.84;;;16.04;53.92
19672;BME280;9983;51.114;13.788;2023-05-24T11:02:21;99894.81;;;15.24;56.65
19672;BME280;9983;51.114;13.788;2023-05-24T11:07:22;99884.38;;;16.39;52.52
19672;BME280;9983;51.114;13.788;2023-05-24T11:12:29;99892.25;;;16.34;53.22
19672;BME280;9983;51.114;13.788;2023-05-24T11:23:06;99890.41;;;17.81;47.28
19672;BME280;9983;51.114;13.788;2023-05-24T11:28:09;99885.78;;;17.16;50.83
19672;BME280;9983;51.114;13.788;2023-05-24T11:33:18;99875.38;;;17.32;50.83
19672;BME280;9983;51.114;13.788;2023-05-24T11:38:19;99876.22;;;17.53;49.05
19672;BME280;9983;51.114;13.788;2023-05-24T11:43:20;99872.06;;;17.57;47.26
19672;BME280;9983;51.114;13.788;2023-05-24T11:48:21;99879.97;;;17.05;52.68
19672;BME280;9983;51.114;13.788;2023-05-24T11:53:21;99876.97;;;16.61;51.73
19672;BME280;9983;51.114;13.788;2023-05-24T11:58:23;99886.19;;;17.98;48.95
19672;BME280;9983;51.114;13.788;2023-05-24T12:03:23;99886.13;;;19.07;45.91
19672;BME280;9983;51.114;13.788;2023-05-24T12:08:24;99876.41;;;20.47;42.70
19672;BME280;9983;51.114;13.788;2023-05-24T12:13:24;99896.94;;;19.14;45.44
19672;BME280;9983;51.114;13.788;2023-05-24T12:18:25;99893.69;;;18.99;46.66
19672;BME280;9983;51.114;13.788;2023-05-24T12:23:26;99896.66;;;21.76;42.17
19672;BME280;9983;51.114;13.788;2023-05-24T12:28:36;99878.69;;;20.62;39.34
19672;BME280;9983;51.114;13.788;2023-05-24T12:33:37;99891.28;;;19.40;42.97
19672;BME280;9983;51.114;13.788;2023-05-24T12:38:38;99894.56;;;19.24;43.76
19672;BME280;9983;51.114;13.788;2023-05-24T12:43:39;99892.09;;;18.84;45.76
19672;BME280;9983;51.114;13.788;2023-05-24T12:48:39;99874.19;;;20.56;42.98
19672;BME280;9983;51.114;13.788;2023-05-24T12:53:40;99881.06;;;21.30;40.95
19672;BME280;9983;51.114;13.788;2023-05-24T12:58:40;99883.56;;;22.64;37.03
19672;BME280;9983;51.114;13.788;2023-05-24T13:03:41;99871.75;;;23.04;36.54
19672;BME280;9983;51.114;13.788;2023-05-24T13:08:41;99878.59;;;23.85;34.80
19672;BME280;9983;51.114;13.788;2023-05-24T13:13:41;99869.50;;;24.40;33.88
19672;BME280;9983;51.114;13.788;2023-05-24T13:18:43;99873.03;;;23.46;33.10
19672;BME280;9983;51.114;13.788;2023-05-24T13:23:45;99863.31;;;24.11;34.98
19672;BME280;9983;51.114;13.788;2023-05-24T13:28:45;99870.78;;;23.77;31.97
19672;BME280;9983;51.114;13.788;2023-05-24T13:33:46;99856.81;;;24.82;32.65
19672;BME280;9983;51.114;13.788;2023-05-24T13:38:46;99857.41;;;26.27;31.65
19672;BME280;9983;51.114;13.788;2023-05-24T13:43:46;99861.34;;;25.57;31.17
19672;BME280;9983;51.114;13.788;2023-05-24T13:48:47;99855.16;;;26.19;30.68
19672;BME280;9983;51.114;13.788;2023-05-24T13:53:48;99848.25;;;25.64;31.39
19672;BME280;9983;51.114;13.788;2023-05-24T13:58:49;99851.19;;;26.57;30.08
19672;BME280;9983;51.114;13.788;2023-05-24T14:03:49;99858.69;;;23.73;31.60
19672;BME280;9983;51.114;13.788;2023-05-24T14:08:49;99848.53;;;26.15;28.94
19672;BME280;9983;51.114;13.788;2023-05-24T14:13:50;99860.88;;;24.09;31.74
19672;BME280;9983;51.114;13.788;2023-05-24T14:18:50;99846.78;;;24.66;33.20
19672;BME280;9983;51.114;13.788;2023-05-24T14:23:50;99847.25;;;25.44;31.65
19672;BME280;9983;51.114;13.788;2023-05-24T14:28:51;99845.50;;;25.69;29.36
19672;BME280;9983;51.114;13.788;2023-05-24T14:33:51;99846.09;;;27.11;26.86
19672;BME280;9983;51.114;13.788;2023-05-24T14:38:51;99843.28;;;26.76;27.57
19672;BME280;9983;51.114;13.788;2023-05-24T14:43:52;99839.22;;;27.44;28.63
19672;BME280;9983;51.114;13.788;2023-05-24T14:48:52;99838.41;;;25.68;29.67
19672;BME280;9983;51.114;13.788;2023-05-24T14:53:52;99842.50;;;24.27;30.34
19672;BME280;9983;51.114;13.788;2023-05-24T14:58:52;99838.47;;;24.61;30.99
19672;BME280;9983;51.114;13.788;2023-05-24T15:03:53;99832.22;;;26.56;29.04
19672;BME280;9983;51.114;13.788;2023-05-24T15:08:53;99844.31;;;26.50;27.66
19672;BME280;9983;51.114;13.788;2023-05-24T15:13:56;99843.34;;;26.19;27.02
19672;BME280;9983;51.114;13.788;2023-05-24T15:18:58;99838.75;;;26.34;27.09
19672;BME280;9983;51.114;13.788;2023-05-24T15:23:58;99835.88;;;26.14;27.09
19672;BME280;9983;51.114;13.788;2023-05-24T15:28:58;99843.31;;;27.47;27.51
19672;BME280;9983;51.114;13.788;2023-05-24T15:34:02;99833.44;;;27.31;26.50
19672;BME280;9983;51.114;13.788;2023-05-24T15:39:03;99842.00;;;25.42;29.52
19672;BME280;9983;51.114;13.788;2023-05-24T15:44:06;99834.94;;;28.13;27.57
19672;BME280;9983;51.114;13.788;2023-05-24T15:49:07;99845.13;;;25.98;28.46
19672;BME280;9983;51.114;13.788;2023-05-24T15:54:07;99846.59;;;25.00;29.98
19672;BME280;9983;51.114;13.788;2023-05-24T15:59:08;99839.63;;;24.65;32.39
19672;BME280;9983;51.114;13.788;2023-05-24T16:04:08;99841.09;;;25.63;31.50
19672;BME280;9983;51.114;13.788;2023-05-24T16:09:08;99844.16;;;24.76;30.62
19672;BME280;9983;51.114;13.788;2023-05-24T16:14:08;99857.38;;;23.25;33.81
19672;BME280;9983;51.114;13.788;2023-05-24T16:19:09;99831.88;;;24.57;32.59
19672;BME280;9983;51.114;13.788;2023-05-24T16:24:09;99828.81;;;24.80;32.51
19672;BME280;9983;51.114;13.788;2023-05-24T16:29:10;99838.13;;;23.20;33.30
19672;BME280;9983;51.114;13.788;2023-05-24T16:34:10;99836.31;;;22.52;33.97
19672;BME280;9983;51.114;13.788;2023-05-24T16:39:11;99835.53;;;21.88;33.79
19672;BME280;9983;51.114;13.788;2023-05-24T16:44:11;99846.69;;;21.29;35.77
19672;BME280;9983;51.114;13.788;2023-05-24T16:49:16;99851.47;;;20.62;36.72
19672;BME280;9983;51.114;13.788;2023-05-24T16:54:16;99847.25;;;20.48;38.82
19672;BME280;9983;51.114;13.788;2023-05-24T16:59:16;99854.66;;;19.67;39.92
19672;BME280;9983;51.114;13.788;2023-05-24T17:04:17;99847.66;;;19.96;41.11
19672;BME280;9983;51.114;13.788;2023-05-24T17:09:17;99846.97;;;20.19;39.48
19672;BME280;9983;51.114;13.788;2023-05-24T17:14:18;99862.53;;;19.76;40.67
19672;BME280;9983;51.114;13.788;2023-05-24T17:19:18;99852.09;;;19.73;39.90
19672;BME280;9983;51.114;13.788;2023-05-24T17:24:19;99857.78;;;19.46;40.77
19672;BME280;9983;51.114;13.788;2023-05-24T17:29:21;99859.09;;;19.37;41.10
19672;BME280;9983;51.114;13.788;2023-05-24T17:34:21;99855.19;;;19.02;42.07
19672;BME280;9983;51.114;13.788;2023-05-24T17:39:21;99866.97;;;18.95;42.13
19672;BME280;9983;51.114;13.788;2023-05-24T17:44:22;99871.97;;;18.99;42.20
19672;BME280;9983;51.114;13.788;2023-05-24T17:49:23;99877.47;;;18.85;44.12
19672;BME280;9983;51.114;13.788;2023-05-24T17:54:23;99886.53;;;18.73;52.54
19672;BME280;9983;51.114;13.788;2023-05-24T17:59:23;99884.31;;;18.50;56.29
19672;BME280;9983;51.114;13.788;2023-05-24T18:04:23;99885.16;;;18.57;48.44
19672;BME280;9983;51.114;13.788;2023-05-24T18:09:24;99893.06;;;18.01;60.01
19672;BME280;9983;51.114;13.788;2023-05-24T18:14:24;99889.13;;;17.90;56.14
19672;BME280;9983;51.114;13.788;2023-05-24T18:19:25;99897.50;;;17.69;59.81
19672;BME280;9983;51.114;13.788;2023-05-24T18:24:25;99898.31;;;17.50;62.06
19672;BME280;9983;51.114;13.788;2023-05-24T18:29:25;99897.47;;;17.16;63.89
19672;BME280;9983;51.114;13.788;2023-05-24T18:34:25;99914.22;;;16.18;68.02
19672;BME280;9983;51.114;13.788;2023-05-24T18:39:26;99923.38;;;16.17;70.30
19672;BME280;9983;51.114;13.788;2023-05-24T18:44:26;99922.41;;;15.41;72.55
19672;BME280;9983;51.114;13.788;2023-05-24T18:49:26;99920.81;;;15.46;73.05
19672;BME280;9983;51.114;13.788;2023-05-24T18:54:27;99919.47;;;15.36;73.95
19672;BME280;9983;51.114;13.788;2023-05-24T18:59:27;99926.28;;;14.53;77.47
19672;BME280;9983;51.114;13.788;2023-05-24T19:04:33;99925.03;;;14.05;80.55
19672;BME280;9983;51.114;13.788;2023-05-24T19:09:33;99921.09;;;14.22;79.84
19672;BME280;9983;51.114;13.788;2023-05-24T19:14:38;99921.47;;;13.90;82.55
19672;BME280;9983;51.114;13.788;2023-05-24T19:19:40;99939.53;;;14.04;82.05
19672;BME280;9983;51.114;13.788;2023-05-24T19:24:40;99951.34;;;13.65;83.67
19672;BME280;9983;51.114;13.788;2023-05-24T19:29:40;99948.81;;;13.87;84.13
19672;BME280;9983;51.114;13.788;2023-05-24T19:34:40;99956.91;;;13.49;85.88
19672;BME280;9983;51.114;13.788;2023-05-24T19:39:41;99967.38;;;13.82;83.41
19672;BME280;9983;51.114;13.788;2023-05-24T19:44:41;99975.81;;;12.96;90.76
19672;BME280;9983;51.114;13.788;2023-05-24T19:49:41;99972.34;;;13.10;88.63
19672;BME280;9983;51.114;13.788;2023-05-24T19:54:42;99981.81;;;12.36;95.45
19672;BME280;9983;51.114;13.788;2023-05-24T19:59:42;99978.53;;;12.09;98.52
19672;BME280;9983;51.114;13.788;2023-05-24T20:04:42;99987.91;;;12.30;98.80
19672;BME280;9983;51.114;13.788;2023-05-24T20:09:42;99991.66;;;11.72;100.00
19672;BME280;9983;51.114;13.788;2023-05-24T20:14:43;99997.34;;;12.18;100.00
19672;BME280;9983;51.114;13.788;2023-05-24T20:19:43;100003.25;;;11.97;100.00
19672;BME280;9983;51.114;13.788;2023-05-24T20:24:44;100007.78;;;12.04;100.00
19672;BME280;9983;51.114;13.788;2023-05-24T20:29:44;100003.00;;;12.23;99.20
19672;BME280;9983;51.114;13.788;2023-05-24T20:34:44;100001.97;;;12.32;98.12
19672;BME280;9983;51.114;13.788;2023-05-24T20:39:44;100007.06;;;12.27;98.38
19672;BME280;9983;51.114;13.788;2023-05-24T20:44:45;100016.19;;;11.61;100.00
19672;BME280;9983;51.114;13.788;2023-05-24T20:49:45;100021.34;;;12.27;97.17
19672;BME280;9983;51.114;13.788;2023-05-24T20:54:45;100019.88;;;11.27;100.00
19672;BME280;9983;51.114;13.788;2023-05-24T20:59:46;100021.56;;;11.61;100.00
19672;BME280;9983;51.114;13.788;2023-05-24T21:04:46;100026.97;;;11.77;98.78
19672;BME280;9983;51.114;13.788;2023-05-24T21:09:46;100026.78;;;10.80;100.00
19672;BME280;9983;51.114;13.788;2023-05-24T21:14:47;100030.56;;;10.95;100.00
19672;BME280;9983;51.114;13.788;2023-05-24T21:19:47;100042.63;;;10.99;100.00
19672;BME280;9983;51.114;13.788;2023-05-24T21:24:47;100049.03;;;10.64;100.00
19672;BME280;9983;51.114;13.788;2023-05-24T21:29:47;100047.09;;;10.40;100.00
19672;BME280;9983;51.114;13.788;2023-05-24T21:34:48;100046.44;;;10.46;100.00
19672;BME280;9983;51.114;13.788;2023-05-24T21:39:48;100038.38;;;10.80;100.00
19672;BME280;9983;51.114;13.788;2023-05-24T21:44:49;100052.22;;;10.59;100.00
19672;BME280;9983;51.114;13.788;2023-05-24T21:49:49;100049.69;;;9.80;100.00
19672;BME280;9983;51.114;13.788;2023-05-24T21:54:50;100054.44;;;10.12;100.00
19672;BME280;9983;51.114;13.788;2023-05-24T21:59:50;100048.50;;;10.52;100.00
19672;BME280;9983;51.114;13.788;2023-05-24T22:04:50;100056.72;;;9.81;100.00
19672;BME280;9983;51.114;13.788;2023-05-24T22:09:50;100062.34;;;9.96;100.00
19672;BME280;9983;51.114;13.788;2023-05-24T22:14:51;100062.50;;;9.33;100.00
19672;BME280;9983;51.114;13.788;2023-05-24T22:19:51;100060.38;;;9.80;100.00
19672;BME280;9983;51.114;13.788;2023-05-24T22:24:52;100065.16;;;9.86;100.00
19672;BME280;9983;51.114;13.788;2023-05-24T22:29:53;100065.44;;;9.83;100.00
19672;BME280;9983;51.114;13.788;2023-05-24T22:34:53;100069.56;;;9.96;100.00
19672;BME280;9983;51.114;13.788;2023-05-24T22:39:53;100071.53;;;9.50;100.00
19672;BME280;9983;51.114;13.788;2023-05-24T22:44:54;100078.41;;;9.35;100.00
19672;BME280;9983;51.114;13.788;2023-05-24T22:49:54;100077.09;;;9.03;100.00
19672;BME280;9983;51.114;13.788;2023-05-24T22:54:54;100083.25;;;9.04;100.00
19672;BME280;9983;51.114;13.788;2023-05-24T22:59:55;100084.25;;;9.21;100.00
19672;BME280;9983;51.114;13.788;2023-05-24T23:04:55;100074.25;;;9.23;100.00
19672;BME280;9983;51.114;13.788;2023-05-24T23:09:55;100079.44;;;8.79;100.00
19672;BME280;9983;51.114;13.788;2023-05-24T23:14:58;100083.88;;;8.33;100.00
19672;BME280;9983;51.114;13.788;2023-05-24T23:19:58;100077.28;;;8.65;100.00
19672;BME280;9983;51.114;13.788;2023-05-24T23:24:59;100080.22;;;8.34;100.00
19672;BME280;9983;51.114;13.788;2023-05-24T23:29:59;100085.84;;;8.12;100.00
19672;BME280;9983;51.114;13.788;2023-05-24T23:34:59;100083.41;;;8.48;100.00
19672;BME280;9983;51.114;13.788;2023-05-24T23:39:59;100090.06;;;8.15;100.00
19672;BME280;9983;51.114;13.788;2023-05-24T23:45:05;100099.63;;;8.36;100.00
19672;BME280;9983;51.114;13.788;2023-05-24T23:50:06;100091.13;;;8.51;100.00
19672;BME280;9983;51.114;13.788;2023-05-24T23:55:07;100099.13;;;7.75;100.00
